PABT

Details ICAO PABT (BTT)
Name BETTLES
Region USA (Alaska)
Timezone America/Anchorage (UTC-8.0)
Plans Departing 9
Arriving 13
Stats Elevation 644 ft / 196 m (AMSL)
Location 66.913940° -151.529042°
Runways 1
Magnetic Variation 16.238° E
Sunrise 2018-05-23 11:34:33 UTC / 2018-05-23 03:34:33 Local
Sunset 2018-05-24 08:34:07 UTC / 2018-05-24 00:34:07 Local
Advertisement - Login to hide

Runways

ID Width Length Bearing (true) Bearing (mag) Surface Threshold Offset Overrun Length
01 150 ft / 46 m 5,174 ft / 1,577 m 32.24° 16.00° Gravel 0 ft / 0 m 0 ft / 0 m
19 150 ft / 46 m 5,174 ft / 1,577 m 212.26° 196.02° Gravel 0 ft / 0 m 0 ft / 0 m

Approach Navaids

Runway Type Ident Frequency Range Bearing (true) Bearing (mag) Slope Elevation
01 Localiser IBTT 108.70 MHz 18 nm / 33 km 32.79° 16.55° - 633 ft / 193 m (AMSL)
01 DME IBTT 108.70 MHz 18 nm / 33 km - - - 653 ft / 199 m (AMSL)

Map

Weather


0- 5 10 15 20 25 30 35+ Temperature / ° C

Clouds and Precipitation
Forecast for 2018-05-24 06:00 UTC. Updated 2 hours ago

Ground ~20,000 ft ~40,000 ft Winds

METAR

PABT 240653Z 02003KT 10SM FEW050 SCT250 11/03 A2967 RMK AO2 SLP056 T01110033

TAF

PABT 240541Z 2406/2506 02004KT P6SM FEW045 SCT060 SCT100 FM242200 VRB03KT P6SM VCTS SCT050CB BKN100

Frequencies

Recorded 135.45 MHz ASOS
Unicom 122.90 MHz CTAF
Warning: Do not use this data for real-world aviation or navigation. No guarantee of current accuracy is given.